< < Back
Terminal Aerodrome Forecast


Current Version              Previous Versions:   1  2  3  4  5  6  7  8  9  

Terminal Aerodrome Forecast

286
FTUS42 KILM 032334
TAFFLO
TAF
KFLO 032334Z 0400/0424 21009KT P6SM SKC
     FM040900 08004KT 6SM BR BKN020 OVC080
      TEMPO 0409/0413 2SM BR BKN010
     FM041300 04005KT P6SM VCSH BKN040
     FM042100 VRB03KT P6SM SCT050=

Latest METAR

080
SAUS70 KWBC 041600 RRF
MTRFLO
METAR KFLO 041553Z 06007KT 030V100 10SM SCT029 31/23 A2996 RMK AO2
SLP141 T03110228


USA.gov is the U.S. government's official web portal to all federal, state and local government web resources and services.